sensor_id;sensor_type;location;lat;lon;timestamp;pressure;altitude;pressure_sealevel;temperature;humidity
10127;BME280;13080;42.608;23.362;2023-01-25T00:00:49;150894.97;;;-0.85;100.00
10127;BME280;13080;42.608;23.362;2023-01-25T00:03:16;150914.28;;;-0.77;100.00
10127;BME280;13080;42.608;23.362;2023-01-25T00:05:44;150918.16;;;-0.75;100.00
10127;BME280;13080;42.608;23.362;2023-01-25T00:08:10;150916.88;;;-0.76;100.00
10127;BME280;13080;42.608;23.362;2023-01-25T00:10:37;150924.56;;;-0.73;100.00
10127;BME280;13080;42.608;23.362;2023-01-25T00:13:03;150927.16;;;-0.72;100.00
10127;BME280;13080;42.608;23.362;2023-01-25T00:15:30;150928.44;;;-0.71;100.00
10127;BME280;13080;42.608;23.362;2023-01-25T00:17:56;150934.88;;;-0.69;100.00
10127;BME280;13080;42.608;23.362;2023-01-25T00:20:23;150933.59;;;-0.69;100.00
10127;BME280;13080;42.608;23.362;2023-01-25T00:22:51;150924.56;;;-0.73;100.00
10127;BME280;13080;42.608;23.362;2023-01-25T00:25:17;150931.00;;;-0.70;100.00
10127;BME280;13080;42.608;23.362;2023-01-25T00:27:43;150928.44;;;-0.71;100.00
10127;BME280;13080;42.608;23.362;2023-01-25T00:30:10;150906.56;;;-0.80;100.00
10127;BME280;13080;42.608;23.362;2023-01-25T00:32:41;150916.88;;;-0.76;100.00
10127;BME280;13080;42.608;23.362;2023-01-25T00:35:12;150892.38;;;-0.86;100.00
10127;BME280;13080;42.608;23.362;2023-01-25T00:37:39;150871.81;;;-0.94;100.00
10127;BME280;13080;42.608;23.362;2023-01-25T00:40:09;150871.81;;;-0.94;100.00
10127;BME280;13080;42.608;23.362;2023-01-25T00:42:36;150865.41;;;-0.96;100.00
10127;BME280;13080;42.608;23.362;2023-01-25T00:45:02;150875.66;;;-0.92;100.00
10127;BME280;13080;42.608;23.362;2023-01-25T00:47:29;150871.81;;;-0.94;100.00
10127;BME280;13080;42.608;23.362;2023-01-25T00:49:55;150852.50;;;-1.01;100.00
10127;BME280;13080;42.608;23.362;2023-01-25T00:52:22;150870.50;;;-0.94;100.00
10127;BME280;13080;42.608;23.362;2023-01-25T00:54:49;150861.53;;;-0.98;100.00
10127;BME280;13080;42.608;23.362;2023-01-25T00:57:16;150867.97;;;-0.95;100.00
10127;BME280;13080;42.608;23.362;2023-01-25T00:59:43;150873.09;;;-0.93;100.00
10127;BME280;13080;42.608;23.362;2023-01-25T01:02:11;150840.94;;;-1.06;100.00
10127;BME280;13080;42.608;23.362;2023-01-25T01:04:38;150838.38;;;-1.07;100.00
10127;BME280;13080;42.608;23.362;2023-01-25T01:07:05;150829.34;;;-1.11;100.00
10127;BME280;13080;42.608;23.362;2023-01-25T01:09:31;150831.94;;;-1.10;100.00
10127;BME280;13080;42.608;23.362;2023-01-25T01:11:58;150822.94;;;-1.13;100.00
10127;BME280;13080;42.608;23.362;2023-01-25T01:14:26;150830.63;;;-1.10;100.00
10127;BME280;13080;42.608;23.362;2023-01-25T01:16:52;150842.19;;;-1.06;100.00
10127;BME280;13080;42.608;23.362;2023-01-25T01:19:19;150839.66;;;-1.07;100.00
10127;BME280;13080;42.608;23.362;2023-01-25T01:21:45;150835.78;;;-1.08;100.00
10127;BME280;13080;42.608;23.362;2023-01-25T01:24:12;150831.94;;;-1.10;100.00
10127;BME280;13080;42.608;23.362;2023-01-25T01:26:38;150821.66;;;-1.14;100.00
10127;BME280;13080;42.608;23.362;2023-01-25T01:29:05;150797.19;;;-1.23;100.00
10127;BME280;13080;42.608;23.362;2023-01-25T01:31:33;150780.44;;;-1.30;100.00
10127;BME280;13080;42.608;23.362;2023-01-25T01:33:59;150768.88;;;-1.35;100.00
10127;BME280;13080;42.608;23.362;2023-01-25T01:36:27;150785.59;;;-1.28;100.00
10127;BME280;13080;42.608;23.362;2023-01-25T01:38:54;150803.66;;;-1.21;100.00
10127;BME280;13080;42.608;23.362;2023-01-25T01:41:20;150806.19;;;-1.20;100.00
10127;BME280;13080;42.608;23.362;2023-01-25T01:43:47;150806.19;;;-1.20;100.00
10127;BME280;13080;42.608;23.362;2023-01-25T01:46:14;150793.34;;;-1.25;100.00
10127;BME280;13080;42.608;23.362;2023-01-25T01:48:45;150794.63;;;-1.24;100.00
10127;BME280;13080;42.608;23.362;2023-01-25T01:51:17;150793.34;;;-1.25;100.00
10127;BME280;13080;42.608;23.362;2023-01-25T01:53:45;150781.78;;;-1.30;100.00
10127;BME280;13080;42.608;23.362;2023-01-25T01:56:14;150793.34;;;-1.25;100.00
10127;BME280;13080;42.608;23.362;2023-01-25T01:58:42;150795.91;;;-1.24;100.00
10127;BME280;13080;42.608;23.362;2023-01-25T02:01:10;150802.31;;;-1.21;100.00
10127;BME280;13080;42.608;23.362;2023-01-25T02:03:36;150807.47;;;-1.19;100.00
10127;BME280;13080;42.608;23.362;2023-01-25T02:06:07;150807.47;;;-1.19;100.00
10127;BME280;13080;42.608;23.362;2023-01-25T02:08:37;150804.94;;;-1.20;100.00
10127;BME280;13080;42.608;23.362;2023-01-25T02:11:05;150810.06;;;-1.18;100.00
10127;BME280;13080;42.608;23.362;2023-01-25T02:13:33;150783.06;;;-1.29;100.00
10127;BME280;13080;42.608;23.362;2023-01-25T02:16:00;150776.63;;;-1.32;100.00
10127;BME280;13080;42.608;23.362;2023-01-25T02:18:27;150768.88;;;-1.35;100.00
10127;BME280;13080;42.608;23.362;2023-01-25T02:20:54;150766.31;;;-1.36;100.00
10127;BME280;13080;42.608;23.362;2023-01-25T02:23:26;150776.63;;;-1.32;100.00
10127;BME280;13080;42.608;23.362;2023-01-25T02:25:56;150776.63;;;-1.32;100.00
10127;BME280;13080;42.608;23.362;2023-01-25T02:28:26;150786.94;;;-1.28;100.00
10127;BME280;13080;42.608;23.362;2023-01-25T02:30:54;150772.75;;;-1.33;100.00
10127;BME280;13080;42.608;23.362;2023-01-25T02:33:21;150779.19;;;-1.31;100.00
10127;BME280;13080;42.608;23.362;2023-01-25T02:35:49;150784.31;;;-1.29;100.00
10127;BME280;13080;42.608;23.362;2023-01-25T02:38:18;150788.19;;;-1.27;100.00
10127;BME280;13080;42.608;23.362;2023-01-25T02:40:45;150788.19;;;-1.27;100.00
10127;BME280;13080;42.608;23.362;2023-01-25T02:43:15;150750.88;;;-1.42;100.00
10127;BME280;13080;42.608;23.362;2023-01-25T02:45:43;150770.19;;;-1.34;100.00
10127;BME280;13080;42.608;23.362;2023-01-25T02:48:11;150767.59;;;-1.35;100.00
10127;BME280;13080;42.608;23.362;2023-01-25T02:50:37;150763.72;;;-1.37;100.00
10127;BME280;13080;42.608;23.362;2023-01-25T02:53:04;150766.31;;;-1.36;100.00
10127;BME280;13080;42.608;23.362;2023-01-25T02:55:30;150754.75;;;-1.40;100.00
10127;BME280;13080;42.608;23.362;2023-01-25T02:57:57;150777.91;;;-1.31;100.00
10127;BME280;13080;42.608;23.362;2023-01-25T03:00:24;150772.75;;;-1.33;100.00
10127;BME280;13080;42.608;23.362;2023-01-25T03:02:51;150786.94;;;-1.28;100.00
10127;BME280;13080;42.608;23.362;2023-01-25T03:05:17;150765.06;;;-1.36;100.00
10127;BME280;13080;42.608;23.362;2023-01-25T03:07:44;150768.88;;;-1.35;100.00
10127;BME280;13080;42.608;23.362;2023-01-25T03:10:11;150721.31;;;-1.54;100.00
10127;BME280;13080;42.608;23.362;2023-01-25T03:12:37;150750.88;;;-1.42;100.00
10127;BME280;13080;42.608;23.362;2023-01-25T03:15:04;150754.75;;;-1.40;100.00
10127;BME280;13080;42.608;23.362;2023-01-25T03:17:32;150738.03;;;-1.47;100.00
10127;BME280;13080;42.608;23.362;2023-01-25T03:19:59;150723.88;;;-1.53;100.00
10127;BME280;13080;42.608;23.362;2023-01-25T03:22:25;150750.88;;;-1.42;100.00
10127;BME280;13080;42.608;23.362;2023-01-25T03:24:52;150758.63;;;-1.39;100.00
10127;BME280;13080;42.608;23.362;2023-01-25T03:27:18;150763.72;;;-1.37;100.00
10127;BME280;13080;42.608;23.362;2023-01-25T03:29:45;150772.75;;;-1.33;100.00
10127;BME280;13080;42.608;23.362;2023-01-25T03:32:11;150788.19;;;-1.27;100.00
10127;BME280;13080;42.608;23.362;2023-01-25T03:34:39;150785.59;;;-1.28;100.00
10127;BME280;13080;42.608;23.362;2023-01-25T03:37:05;150779.19;;;-1.31;100.00
10127;BME280;13080;42.608;23.362;2023-01-25T03:39:32;150771.47;;;-1.34;100.00
10127;BME280;13080;42.608;23.362;2023-01-25T03:41:58;150759.91;;;-1.38;100.00
10127;BME280;13080;42.608;23.362;2023-01-25T03:44:25;150766.31;;;-1.36;100.00
10127;BME280;13080;42.608;23.362;2023-01-25T03:46:51;150766.31;;;-1.36;100.00
10127;BME280;13080;42.608;23.362;2023-01-25T03:49:18;150770.19;;;-1.34;100.00
10127;BME280;13080;42.608;23.362;2023-01-25T03:51:46;150775.34;;;-1.32;100.00
10127;BME280;13080;42.608;23.362;2023-01-25T03:54:12;150776.63;;;-1.32;100.00
10127;BME280;13080;42.608;23.362;2023-01-25T03:56:39;150772.75;;;-1.33;100.00
10127;BME280;13080;42.608;23.362;2023-01-25T03:59:05;150753.47;;;-1.41;100.00
10127;BME280;13080;42.608;23.362;2023-01-25T04:01:32;150752.16;;;-1.41;100.00
10127;BME280;13080;42.608;23.362;2023-01-25T04:03:58;150721.31;;;-1.54;100.00
10127;BME280;13080;42.608;23.362;2023-01-25T04:06:25;150696.91;;;-1.63;100.00
10127;BME280;13080;42.608;23.362;2023-01-25T04:08:52;150699.44;;;-1.62;100.00
10127;BME280;13080;42.608;23.362;2023-01-25T04:11:19;150699.44;;;-1.62;100.00
10127;BME280;13080;42.608;23.362;2023-01-25T04:13:45;150714.88;;;-1.56;100.00
10127;BME280;13080;42.608;23.362;2023-01-25T04:16:12;150729.00;;;-1.51;100.00
10127;BME280;13080;42.608;23.362;2023-01-25T04:18:38;150736.75;;;-1.48;100.00
10127;BME280;13080;42.608;23.362;2023-01-25T04:21:05;150730.34;;;-1.50;100.00
10127;BME280;13080;42.608;23.362;2023-01-25T04:23:31;150705.88;;;-1.60;100.00
10127;BME280;13080;42.608;23.362;2023-01-25T04:26:00;150709.75;;;-1.58;100.00
10127;BME280;13080;42.608;23.362;2023-01-25T04:28:27;150716.16;;;-1.56;100.00
10127;BME280;13080;42.608;23.362;2023-01-25T04:30:54;150722.59;;;-1.53;100.00
10127;BME280;13080;42.608;23.362;2023-01-25T04:33:20;150736.75;;;-1.48;100.00
10127;BME280;13080;42.608;23.362;2023-01-25T04:35:47;150736.75;;;-1.48;100.00
10127;BME280;13080;42.608;23.362;2023-01-25T04:38:13;150685.31;;;-1.68;100.00
10127;BME280;13080;42.608;23.362;2023-01-25T04:40:40;150708.47;;;-1.59;100.00
10127;BME280;13080;42.608;23.362;2023-01-25T04:43:09;150720.03;;;-1.54;100.00
10127;BME280;13080;42.608;23.362;2023-01-25T04:45:36;150721.31;;;-1.54;100.00
10127;BME280;13080;42.608;23.362;2023-01-25T04:48:03;150726.47;;;-1.52;100.00
10127;BME280;13080;42.608;23.362;2023-01-25T04:50:30;150714.88;;;-1.56;100.00
10127;BME280;13080;42.608;23.362;2023-01-25T04:52:56;150731.59;;;-1.50;100.00
10127;BME280;13080;42.608;23.362;2023-01-25T04:55:23;150747.06;;;-1.43;100.00
10127;BME280;13080;42.608;23.362;2023-01-25T04:57:50;150740.59;;;-1.46;100.00
10127;BME280;13080;42.608;23.362;2023-01-25T05:00:18;150759.91;;;-1.38;100.00
10127;BME280;13080;42.608;23.362;2023-01-25T05:02:45;150768.88;;;-1.35;100.00
10127;BME280;13080;42.608;23.362;2023-01-25T05:05:11;150768.88;;;-1.35;100.00
10127;BME280;13080;42.608;23.362;2023-01-25T05:07:38;150766.31;;;-1.36;100.00
10127;BME280;13080;42.608;23.362;2023-01-25T05:10:05;150771.47;;;-1.34;100.00
10127;BME280;13080;42.608;23.362;2023-01-25T05:12:32;150757.31;;;-1.39;100.00
10127;BME280;13080;42.608;23.362;2023-01-25T05:14:59;150763.72;;;-1.37;100.00
10127;BME280;13080;42.608;23.362;2023-01-25T05:17:26;150753.47;;;-1.41;100.00
10127;BME280;13080;42.608;23.362;2023-01-25T05:19:53;150762.44;;;-1.37;100.00
10127;BME280;13080;42.608;23.362;2023-01-25T05:22:19;150759.91;;;-1.38;100.00
10127;BME280;13080;42.608;23.362;2023-01-25T05:24:46;150754.75;;;-1.40;100.00
10127;BME280;13080;42.608;23.362;2023-01-25T05:27:14;150749.59;;;-1.42;100.00
10127;BME280;13080;42.608;23.362;2023-01-25T05:29:40;150741.91;;;-1.45;100.00
10127;BME280;13080;42.608;23.362;2023-01-25T05:32:07;150731.59;;;-1.50;100.00
10127;BME280;13080;42.608;23.362;2023-01-25T05:34:36;150744.44;;;-1.44;100.00
10127;BME280;13080;42.608;23.362;2023-01-25T05:37:03;150762.44;;;-1.37;100.00
10127;BME280;13080;42.608;23.362;2023-01-25T05:39:29;150749.59;;;-1.42;100.00
10127;BME280;13080;42.608;23.362;2023-01-25T05:41:56;150767.59;;;-1.35;100.00
10127;BME280;13080;42.608;23.362;2023-01-25T05:44:23;150767.59;;;-1.35;100.00
10127;BME280;13080;42.608;23.362;2023-01-25T05:46:50;150763.72;;;-1.37;100.00
10127;BME280;13080;42.608;23.362;2023-01-25T05:49:16;150763.72;;;-1.37;100.00
10127;BME280;13080;42.608;23.362;2023-01-25T05:51:44;150763.72;;;-1.37;100.00
10127;BME280;13080;42.608;23.362;2023-01-25T05:54:12;150748.34;;;-1.43;100.00
10127;BME280;13080;42.608;23.362;2023-01-25T05:56:38;150739.31;;;-1.47;100.00
10127;BME280;13080;42.608;23.362;2023-01-25T05:59:05;150730.34;;;-1.50;100.00
10127;BME280;13080;42.608;23.362;2023-01-25T06:01:32;150727.72;;;-1.51;100.00
10127;BME280;13080;42.608;23.362;2023-01-25T06:03:58;150722.59;;;-1.53;100.00
10127;BME280;13080;42.608;23.362;2023-01-25T06:06:25;150739.31;;;-1.47;100.00
10127;BME280;13080;42.608;23.362;2023-01-25T06:08:53;150703.31;;;-1.61;100.00
10127;BME280;13080;42.608;23.362;2023-01-25T06:11:20;150723.88;;;-1.53;100.00
10127;BME280;13080;42.608;23.362;2023-01-25T06:13:47;150725.19;;;-1.52;100.00
10127;BME280;13080;42.608;23.362;2023-01-25T06:16:13;150738.03;;;-1.47;100.00
10127;BME280;13080;42.608;23.362;2023-01-25T06:18:40;150727.72;;;-1.51;100.00
10127;BME280;13080;42.608;23.362;2023-01-25T06:21:06;150722.59;;;-1.53;100.00
10127;BME280;13080;42.608;23.362;2023-01-25T06:23:33;150727.72;;;-1.51;100.00
10127;BME280;13080;42.608;23.362;2023-01-25T06:26:02;150736.75;;;-1.48;100.00
10127;BME280;13080;42.608;23.362;2023-01-25T06:28:29;150720.03;;;-1.54;100.00
10127;BME280;13080;42.608;23.362;2023-01-25T06:30:56;150717.44;;;-1.55;100.00
10127;BME280;13080;42.608;23.362;2023-01-25T06:33:22;150711.00;;;-1.58;100.00
10127;BME280;13080;42.608;23.362;2023-01-25T06:35:49;150704.59;;;-1.60;100.00
10127;BME280;13080;42.608;23.362;2023-01-25T06:38:16;150716.16;;;-1.56;100.00
10127;BME280;13080;42.608;23.362;2023-01-25T06:40:43;150731.59;;;-1.50;100.00
10127;BME280;13080;42.608;23.362;2023-01-25T06:43:10;150740.59;;;-1.46;100.00
10127;BME280;13080;42.608;23.362;2023-01-25T06:45:37;150752.16;;;-1.41;100.00
10127;BME280;13080;42.608;23.362;2023-01-25T06:48:04;150756.03;;;-1.40;100.00
10127;BME280;13080;42.608;23.362;2023-01-25T06:50:31;150765.06;;;-1.36;100.00
10127;BME280;13080;42.608;23.362;2023-01-25T06:52:57;150766.31;;;-1.36;100.00
10127;BME280;13080;42.608;23.362;2023-01-25T06:55:24;150761.19;;;-1.38;100.00
10127;BME280;13080;42.608;23.362;2023-01-25T06:57:50;150758.63;;;-1.39;100.00
10127;BME280;13080;42.608;23.362;2023-01-25T07:00:18;150754.75;;;-1.40;100.00
10127;BME280;13080;42.608;23.362;2023-01-25T07:02:45;150749.59;;;-1.42;100.00
10127;BME280;13080;42.608;23.362;2023-01-25T07:05:11;150734.16;;;-1.49;100.00
10127;BME280;13080;42.608;23.362;2023-01-25T07:07:38;150734.16;;;-1.49;100.00
10127;BME280;13080;42.608;23.362;2023-01-25T07:10:05;150740.59;;;-1.46;100.00
10127;BME280;13080;42.608;23.362;2023-01-25T07:12:33;150734.16;;;-1.49;100.00
10127;BME280;13080;42.608;23.362;2023-01-25T07:15:01;150741.91;;;-1.45;100.00
10127;BME280;13080;42.608;23.362;2023-01-25T07:17:28;150752.16;;;-1.41;100.00
10127;BME280;13080;42.608;23.362;2023-01-25T07:19:55;150732.88;;;-1.49;100.00
10127;BME280;13080;42.608;23.362;2023-01-25T07:22:21;150739.31;;;-1.47;100.00
10127;BME280;13080;42.608;23.362;2023-01-25T07:24:48;150757.31;;;-1.39;100.00
10127;BME280;13080;42.608;23.362;2023-01-25T07:27:16;150784.31;;;-1.29;100.00
10127;BME280;13080;42.608;23.362;2023-01-25T07:29:42;150811.34;;;-1.18;100.00
10127;BME280;13080;42.608;23.362;2023-01-25T07:32:10;150834.50;;;-1.09;100.00
10127;BME280;13080;42.608;23.362;2023-01-25T07:34:38;150847.34;;;-1.03;100.00
10127;BME280;13080;42.608;23.362;2023-01-25T07:37:05;150846.06;;;-1.04;100.00
10127;BME280;13080;42.608;23.362;2023-01-25T07:39:33;150842.19;;;-1.06;100.00
10127;BME280;13080;42.608;23.362;2023-01-25T07:42:00;150807.47;;;-1.19;100.00
10127;BME280;13080;42.608;23.362;2023-01-25T07:44:26;150799.78;;;-1.22;100.00
10127;BME280;13080;42.608;23.362;2023-01-25T07:46:53;150799.78;;;-1.22;100.00
10127;BME280;13080;42.608;23.362;2023-01-25T07:49:19;150816.50;;;-1.16;100.00
10127;BME280;13080;42.608;23.362;2023-01-25T07:51:47;150816.50;;;-1.16;100.00
10127;BME280;13080;42.608;23.362;2023-01-25T07:54:13;150802.31;;;-1.21;100.00
10127;BME280;13080;42.608;23.362;2023-01-25T07:56:40;150788.19;;;-1.27;100.00
10127;BME280;13080;42.608;23.362;2023-01-25T07:59:06;150762.44;;;-1.37;100.00
10127;BME280;13080;42.608;23.362;2023-01-25T08:01:33;150795.91;;;-1.24;100.00
10127;BME280;13080;42.608;23.362;2023-01-25T08:04:01;150813.91;;;-1.17;100.00
10127;BME280;13080;42.608;23.362;2023-01-25T08:06:29;150838.38;;;-1.07;100.00
10127;BME280;13080;42.608;23.362;2023-01-25T08:09:01;150811.34;;;-1.18;100.00
10127;BME280;13080;42.608;23.362;2023-01-25T08:11:29;150822.94;;;-1.13;100.00
10127;BME280;13080;42.608;23.362;2023-01-25T08:13:56;150833.22;;;-1.09;100.00
10127;BME280;13080;42.608;23.362;2023-01-25T08:16:26;150851.22;;;-1.02;100.00
10127;BME280;13080;42.608;23.362;2023-01-25T08:18:53;150867.97;;;-0.95;100.00
10127;BME280;13080;42.608;23.362;2023-01-25T08:21:20;150843.53;;;-1.05;100.00
10127;BME280;13080;42.608;23.362;2023-01-25T08:23:48;150849.94;;;-1.02;100.00
10127;BME280;13080;42.608;23.362;2023-01-25T08:26:16;150870.50;;;-0.94;100.00
10127;BME280;13080;42.608;23.362;2023-01-25T08:28:42;150884.69;;;-0.89;100.00
10127;BME280;13080;42.608;23.362;2023-01-25T08:31:10;150885.97;;;-0.88;100.00
10127;BME280;13080;42.608;23.362;2023-01-25T08:33:37;150900.13;;;-0.82;100.00
10127;BME280;13080;42.608;23.362;2023-01-25T08:36:04;150906.56;;;-0.80;100.00
10127;BME280;13080;42.608;23.362;2023-01-25T08:38:33;150906.56;;;-0.80;100.00
10127;BME280;13080;42.608;23.362;2023-01-25T08:41:03;150932.28;;;-0.70;100.00
10127;BME280;13080;42.608;23.362;2023-01-25T08:43:31;150941.31;;;-0.66;100.00
10127;BME280;13080;42.608;23.362;2023-01-25T08:45:58;150974.78;;;-0.53;100.00
10127;BME280;13080;42.608;23.362;2023-01-25T08:48:24;150995.38;;;-0.45;100.00
10127;BME280;13080;42.608;23.362;2023-01-25T08:50:51;150999.22;;;-0.43;100.00
10127;BME280;13080;42.608;23.362;2023-01-25T08:53:17;150994.06;;;-0.45;100.00
10127;BME280;13080;42.608;23.362;2023-01-25T08:55:44;151023.72;;;-0.33;100.00
10127;BME280;13080;42.608;23.362;2023-01-25T08:58:11;151035.28;;;-0.29;100.00
10127;BME280;13080;42.608;23.362;2023-01-25T09:00:39;150986.34;;;-0.48;100.00
10127;BME280;13080;42.608;23.362;2023-01-25T09:03:06;151014.69;;;-0.37;100.00
10127;BME280;13080;42.608;23.362;2023-01-25T09:05:33;151001.81;;;-0.42;100.00
10127;BME280;13080;42.608;23.362;2023-01-25T09:07:59;150999.22;;;-0.43;100.00
10127;BME280;13080;42.608;23.362;2023-01-25T09:10:26;151027.53;;;-0.32;100.00
10127;BME280;13080;42.608;23.362;2023-01-25T09:12:52;151050.69;;;-0.23;100.00
10127;BME280;13080;42.608;23.362;2023-01-25T09:15:19;151059.72;;;-0.19;100.00
10127;BME280;13080;42.608;23.362;2023-01-25T09:17:48;151073.91;;;-0.13;100.00
10127;BME280;13080;42.608;23.362;2023-01-25T09:20:15;151059.72;;;-0.19;100.00
10127;BME280;13080;42.608;23.362;2023-01-25T09:22:42;151045.59;;;-0.25;100.00
10127;BME280;13080;42.608;23.362;2023-01-25T09:25:08;151086.78;;;-0.08;100.00
10127;BME280;13080;42.608;23.362;2023-01-25T09:27:35;151109.97;;;0.01;100.00
10127;BME280;13080;42.608;23.362;2023-01-25T09:30:02;151099.66;;;-0.03;100.00
10127;BME280;13080;42.608;23.362;2023-01-25T09:32:29;151116.38;;;0.04;100.00
10127;BME280;13080;42.608;23.362;2023-01-25T09:34:56;151130.59;;;0.09;100.00
10127;BME280;13080;42.608;23.362;2023-01-25T09:37:23;151162.75;;;0.22;100.00
10127;BME280;13080;42.608;23.362;2023-01-25T09:39:49;151164.06;;;0.23;100.00
10127;BME280;13080;42.608;23.362;2023-01-25T09:42:23;151174.34;;;0.27;100.00
10127;BME280;13080;42.608;23.362;2023-01-25T09:45:08;151200.13;;;0.37;100.00
10127;BME280;13080;42.608;23.362;2023-01-25T09:47:37;151166.63;;;0.24;100.00
10127;BME280;13080;42.608;23.362;2023-01-25T09:50:14;151180.81;;;0.29;100.00
10127;BME280;13080;42.608;23.362;2023-01-25T09:53:02;151191.06;;;0.33;100.00
10127;BME280;13080;42.608;23.362;2023-01-25T09:55:32;151212.97;;;0.42;100.00
10127;BME280;13080;42.608;23.362;2023-01-25T09:58:00;151231.00;;;0.49;100.00
10127;BME280;13080;42.608;23.362;2023-01-25T10:00:32;151192.41;;;0.34;100.00
10127;BME280;13080;42.608;23.362;2023-01-25T10:03:00;151215.59;;;0.43;100.00
10127;BME280;13080;42.608;23.362;2023-01-25T10:05:31;151238.78;;;0.52;100.00
10127;BME280;13080;42.608;23.362;2023-01-25T10:44:34;156081.16;;;19.63;44.08
10127;BME280;13080;42.608;23.362;2023-01-25T10:47:04;62715.63;;;-145.47;100.00
10127;BME280;13080;42.608;23.362;2023-01-25T11:02:43;156416.06;;;20.94;52.26
10127;BME280;13080;42.608;23.362;2023-01-25T11:05:28;156376.81;;;20.79;52.74
10127;BME280;13080;42.608;23.362;2023-01-25T11:30:54;154936.38;;;15.14;39.94
10127;BME280;13080;42.608;23.362;2023-01-25T11:33:21;154147.44;;;12.03;45.19
10127;BME280;13080;42.608;23.362;2023-01-25T11:36:17;153156.72;;;8.12;55.08
10127;BME280;13080;42.608;23.362;2023-01-25T11:38:59;152686.50;;;6.27;61.90
10127;BME280;13080;42.608;23.362;2023-01-25T11:41:33;152686.50;;;6.27;61.90
10127;BME280;13080;42.608;23.362;2023-01-25T11:46:59;151909.47;;;3.19;76.72
10127;BME280;13080;42.608;23.362;2023-01-25T11:49:40;151802.31;;;2.76;80.53
10127;BME280;13080;42.608;23.362;2023-01-25T11:52:19;151746.81;;;2.54;80.56
10127;BME280;13080;42.608;23.362;2023-01-25T11:54:50;151736.47;;;2.50;79.89
10127;BME280;13080;42.608;23.362;2023-01-25T11:57:32;151633.28;;;2.09;83.35
10127;BME280;13080;42.608;23.362;2023-01-25T12:00:07;151598.44;;;1.95;85.86
10127;BME280;13080;42.608;23.362;2023-01-25T12:02:59;151572.63;;;1.85;86.49
10127;BME280;13080;42.608;23.362;2023-01-25T12:05:38;151532.66;;;1.69;86.95
10127;BME280;13080;42.608;23.362;2023-01-25T12:08:20;151519.78;;;1.64;85.57
10127;BME280;13080;42.608;23.362;2023-01-25T12:10:58;151505.56;;;1.58;86.14
10127;BME280;13080;42.608;23.362;2023-01-25T12:13:35;151470.75;;;1.44;87.30
10127;BME280;13080;42.608;23.362;2023-01-25T12:16:14;151478.47;;;1.48;89.73
10127;BME280;13080;42.608;23.362;2023-01-25T12:19:02;151468.16;;;1.43;89.55
10127;BME280;13080;42.608;23.362;2023-01-25T12:21:44;151429.50;;;1.28;90.28
10127;BME280;13080;42.608;23.362;2023-01-25T12:24:35;151437.22;;;1.31;89.83
10127;BME280;13080;42.608;23.362;2023-01-25T12:27:15;151428.19;;;1.28;88.57
10127;BME280;13080;42.608;23.362;2023-01-25T12:29:49;151405.00;;;1.18;89.91
10127;BME280;13080;42.608;23.362;2023-01-25T12:32:25;151417.91;;;1.23;89.39
10127;BME280;13080;42.608;23.362;2023-01-25T12:35:09;151379.25;;;1.08;89.41
10127;BME280;13080;42.608;23.362;2023-01-25T12:37:41;151363.75;;;1.02;89.70
10127;BME280;13080;42.608;23.362;2023-01-25T12:40:13;151356.03;;;0.99;89.87
10127;BME280;13080;42.608;23.362;2023-01-25T12:42:45;151359.88;;;1.00;91.48
10127;BME280;13080;42.608;23.362;2023-01-25T12:45:16;151326.38;;;0.87;91.31
10127;BME280;13080;42.608;23.362;2023-01-25T12:47:48;151332.81;;;0.90;91.04
10127;BME280;13080;42.608;23.362;2023-01-25T12:50:20;151317.38;;;0.83;90.97
10127;BME280;13080;42.608;23.362;2023-01-25T12:52:51;151326.38;;;0.87;90.76
10127;BME280;13080;42.608;23.362;2023-01-25T12:55:19;151330.25;;;0.89;90.62
10127;BME280;13080;42.608;23.362;2023-01-25T12:57:52;151298.00;;;0.76;92.01
10127;BME280;13080;42.608;23.362;2023-01-25T13:00:28;151283.88;;;0.70;92.78
10127;BME280;13080;42.608;23.362;2023-01-25T13:03:16;151301.91;;;0.77;92.58
10127;BME280;13080;42.608;23.362;2023-01-25T13:05:52;151295.47;;;0.75;92.50
10127;BME280;13080;42.608;23.362;2023-01-25T13:08:29;151291.59;;;0.73;90.96
10127;BME280;13080;42.608;23.362;2023-01-25T13:11:08;151291.59;;;0.73;92.25
10127;BME280;13080;42.608;23.362;2023-01-25T13:13:37;151273.56;;;0.66;93.51
10127;BME280;13080;42.608;23.362;2023-01-25T13:16:32;151278.72;;;0.68;92.85
10127;BME280;13080;42.608;23.362;2023-01-25T13:19:00;151286.41;;;0.71;93.32
10127;BME280;13080;42.608;23.362;2023-01-25T13:21:45;151274.81;;;0.67;92.71
10127;BME280;13080;42.608;23.362;2023-01-25T13:24:18;151300.63;;;0.77;92.59
10127;BME280;13080;42.608;23.362;2023-01-25T13:26:59;151251.63;;;0.57;92.50
10127;BME280;13080;42.608;23.362;2023-01-25T13:29:59;151232.34;;;0.50;93.49
10127;BME280;13080;42.608;23.362;2023-01-25T13:32:56;151240.03;;;0.53;93.78
10127;BME280;13080;42.608;23.362;2023-01-25T13:35:29;151231.00;;;0.49;92.68
10127;BME280;13080;42.608;23.362;2023-01-25T13:38:00;151228.47;;;0.48;93.66
10127;BME280;13080;42.608;23.362;2023-01-25T13:40:31;151246.47;;;0.55;93.06
10127;BME280;13080;42.608;23.362;2023-01-25T13:43:00;151234.88;;;0.51;93.37
10127;BME280;13080;42.608;23.362;2023-01-25T13:45:28;151211.72;;;0.41;95.06
10127;BME280;13080;42.608;23.362;2023-01-25T13:48:03;151205.28;;;0.39;95.13
10127;BME280;13080;42.608;23.362;2023-01-25T13:50:33;151227.19;;;0.48;96.31
10127;BME280;13080;42.608;23.362;2023-01-25T13:53:14;151223.28;;;0.46;96.91
10127;BME280;13080;42.608;23.362;2023-01-25T13:55:44;151212.97;;;0.42;95.98
10127;BME280;13080;42.608;23.362;2023-01-25T13:58:16;151238.78;;;0.52;96.89